sensor_id;sensor_type;location;lat;lon;timestamp;temperature;humidity
15535;DHT22;7869;49.264;8.596;2022-08-30T00:01:07;20.30;99.90
15535;DHT22;7869;49.264;8.596;2022-08-30T00:03:38;20.40;99.90
15535;DHT22;7869;49.264;8.596;2022-08-30T00:06:05;20.50;99.90
15535;DHT22;7869;49.264;8.596;2022-08-30T00:08:31;20.50;99.90
15535;DHT22;7869;49.264;8.596;2022-08-30T00:10:58;20.50;99.90
15535;DHT22;7869;49.264;8.596;2022-08-30T00:13:23;20.50;99.90
15535;DHT22;7869;49.264;8.596;2022-08-30T00:15:49;20.50;99.90
15535;DHT22;7869;49.264;8.596;2022-08-30T00:18:15;20.50;99.90
15535;DHT22;7869;49.264;8.596;2022-08-30T00:20:42;20.40;99.90
15535;DHT22;7869;49.264;8.596;2022-08-30T00:23:08;20.40;99.90
15535;DHT22;7869;49.264;8.596;2022-08-30T00:25:33;20.40;99.90
15535;DHT22;7869;49.264;8.596;2022-08-30T00:27:59;20.30;99.90
15535;DHT22;7869;49.264;8.596;2022-08-30T00:30:24;20.30;99.90
15535;DHT22;7869;49.264;8.596;2022-08-30T00:32:50;20.30;99.90
15535;DHT22;7869;49.264;8.596;2022-08-30T00:35:17;20.30;99.90
15535;DHT22;7869;49.264;8.596;2022-08-30T00:37:44;20.20;99.90
15535;DHT22;7869;49.264;8.596;2022-08-30T00:40:10;20.10;99.90
15535;DHT22;7869;49.264;8.596;2022-08-30T00:42:36;20.00;99.90
15535;DHT22;7869;49.264;8.596;2022-08-30T00:45:12;20.00;99.90
15535;DHT22;7869;49.264;8.596;2022-08-30T00:47:37;20.00;99.90
15535;DHT22;7869;49.264;8.596;2022-08-30T00:50:03;20.00;99.90
15535;DHT22;7869;49.264;8.596;2022-08-30T00:52:32;20.00;99.90
15535;DHT22;7869;49.264;8.596;2022-08-30T00:54:59;19.90;99.90
15535;DHT22;7869;49.264;8.596;2022-08-30T00:57:26;19.90;99.90
15535;DHT22;7869;49.264;8.596;2022-08-30T00:59:52;19.90;99.90
15535;DHT22;7869;49.264;8.596;2022-08-30T01:02:18;19.90;99.90
15535;DHT22;7869;49.264;8.596;2022-08-30T01:04:46;19.90;99.90
15535;DHT22;7869;49.264;8.596;2022-08-30T01:07:12;19.80;99.90
15535;DHT22;7869;49.264;8.596;2022-08-30T01:09:37;19.80;99.90
15535;DHT22;7869;49.264;8.596;2022-08-30T01:12:03;19.90;99.90
15535;DHT22;7869;49.264;8.596;2022-08-30T01:14:29;19.80;99.90
15535;DHT22;7869;49.264;8.596;2022-08-30T01:16:57;19.80;99.90
15535;DHT22;7869;49.264;8.596;2022-08-30T01:19:27;19.70;99.90
15535;DHT22;7869;49.264;8.596;2022-08-30T01:21:56;19.60;99.90
15535;DHT22;7869;49.264;8.596;2022-08-30T01:24:23;19.50;99.90
15535;DHT22;7869;49.264;8.596;2022-08-30T01:26:49;19.40;99.90
15535;DHT22;7869;49.264;8.596;2022-08-30T01:29:16;19.30;99.90
15535;DHT22;7869;49.264;8.596;2022-08-30T01:31:43;19.20;99.90
15535;DHT22;7869;49.264;8.596;2022-08-30T01:34:08;19.10;99.90
15535;DHT22;7869;49.264;8.596;2022-08-30T01:36:35;19.10;99.90
15535;DHT22;7869;49.264;8.596;2022-08-30T01:39:02;19.10;99.90
15535;DHT22;7869;49.264;8.596;2022-08-30T01:41:29;19.10;99.90
15535;DHT22;7869;49.264;8.596;2022-08-30T01:43:56;19.20;99.90
15535;DHT22;7869;49.264;8.596;2022-08-30T01:46:23;19.20;99.90
15535;DHT22;7869;49.264;8.596;2022-08-30T01:48:49;19.20;99.90
15535;DHT22;7869;49.264;8.596;2022-08-30T01:51:15;19.40;99.90
15535;DHT22;7869;49.264;8.596;2022-08-30T01:53:41;19.50;99.90
15535;DHT22;7869;49.264;8.596;2022-08-30T01:56:07;19.50;99.90
15535;DHT22;7869;49.264;8.596;2022-08-30T01:58:34;19.50;99.90
15535;DHT22;7869;49.264;8.596;2022-08-30T02:00:59;19.40;99.90
15535;DHT22;7869;49.264;8.596;2022-08-30T02:03:25;19.40;99.90
15535;DHT22;7869;49.264;8.596;2022-08-30T02:05:54;19.30;99.90
15535;DHT22;7869;49.264;8.596;2022-08-30T02:08:20;19.30;99.90
15535;DHT22;7869;49.264;8.596;2022-08-30T02:10:45;19.20;99.90
15535;DHT22;7869;49.264;8.596;2022-08-30T02:13:11;19.20;99.90
15535;DHT22;7869;49.264;8.596;2022-08-30T02:15:36;19.10;99.90
15535;DHT22;7869;49.264;8.596;2022-08-30T02:18:01;19.10;99.90
15535;DHT22;7869;49.264;8.596;2022-08-30T02:20:27;19.10;99.90
15535;DHT22;7869;49.264;8.596;2022-08-30T02:22:52;19.10;99.90
15535;DHT22;7869;49.264;8.596;2022-08-30T02:25:18;19.00;99.90
15535;DHT22;7869;49.264;8.596;2022-08-30T02:27:43;19.00;99.90
15535;DHT22;7869;49.264;8.596;2022-08-30T02:30:09;19.10;99.90
15535;DHT22;7869;49.264;8.596;2022-08-30T02:32:35;19.10;99.90
15535;DHT22;7869;49.264;8.596;2022-08-30T02:35:00;19.00;99.90
15535;DHT22;7869;49.264;8.596;2022-08-30T02:37:26;18.90;99.90
15535;DHT22;7869;49.264;8.596;2022-08-30T02:39:51;18.80;99.90
15535;DHT22;7869;49.264;8.596;2022-08-30T02:42:17;18.70;99.90
15535;DHT22;7869;49.264;8.596;2022-08-30T02:44:42;18.70;99.90
15535;DHT22;7869;49.264;8.596;2022-08-30T02:47:07;18.60;99.90
15535;DHT22;7869;49.264;8.596;2022-08-30T02:49:33;18.50;99.90
15535;DHT22;7869;49.264;8.596;2022-08-30T02:51:58;18.60;99.90
15535;DHT22;7869;49.264;8.596;2022-08-30T02:54:24;18.50;99.90
15535;DHT22;7869;49.264;8.596;2022-08-30T02:56:49;18.50;99.90
15535;DHT22;7869;49.264;8.596;2022-08-30T02:59:15;18.40;99.90
15535;DHT22;7869;49.264;8.596;2022-08-30T03:01:41;18.40;99.90
15535;DHT22;7869;49.264;8.596;2022-08-30T03:04:07;18.40;99.90
15535;DHT22;7869;49.264;8.596;2022-08-30T03:06:32;18.30;99.90
15535;DHT22;7869;49.264;8.596;2022-08-30T03:08:58;18.30;99.90
15535;DHT22;7869;49.264;8.596;2022-08-30T03:11:23;18.20;99.90
15535;DHT22;7869;49.264;8.596;2022-08-30T03:13:49;18.10;99.90
15535;DHT22;7869;49.264;8.596;2022-08-30T03:16:15;18.10;99.90
15535;DHT22;7869;49.264;8.596;2022-08-30T03:18:40;18.10;99.90
15535;DHT22;7869;49.264;8.596;2022-08-30T03:21:08;18.10;99.90
15535;DHT22;7869;49.264;8.596;2022-08-30T03:23:34;18.10;99.90
15535;DHT22;7869;49.264;8.596;2022-08-30T03:25:59;18.10;99.90
15535;DHT22;7869;49.264;8.596;2022-08-30T03:28:25;18.00;99.90
15535;DHT22;7869;49.264;8.596;2022-08-30T03:30:50;18.00;99.90
15535;DHT22;7869;49.264;8.596;2022-08-30T03:33:16;18.00;99.90
15535;DHT22;7869;49.264;8.596;2022-08-30T03:35:41;17.90;99.90
15535;DHT22;7869;49.264;8.596;2022-08-30T03:38:07;17.80;99.90
15535;DHT22;7869;49.264;8.596;2022-08-30T03:40:32;17.80;99.90
15535;DHT22;7869;49.264;8.596;2022-08-30T03:42:58;17.70;99.90
15535;DHT22;7869;49.264;8.596;2022-08-30T03:45:23;17.60;99.90
15535;DHT22;7869;49.264;8.596;2022-08-30T03:47:49;17.60;99.90
15535;DHT22;7869;49.264;8.596;2022-08-30T03:50:14;17.60;99.90
15535;DHT22;7869;49.264;8.596;2022-08-30T03:52:40;17.50;99.90
15535;DHT22;7869;49.264;8.596;2022-08-30T03:55:06;17.50;99.90
15535;DHT22;7869;49.264;8.596;2022-08-30T03:57:31;17.50;99.90
15535;DHT22;7869;49.264;8.596;2022-08-30T03:59:57;17.40;99.90
15535;DHT22;7869;49.264;8.596;2022-08-30T04:02:23;17.30;99.90
15535;DHT22;7869;49.264;8.596;2022-08-30T04:04:48;17.30;99.90
15535;DHT22;7869;49.264;8.596;2022-08-30T04:07:14;17.20;99.90
15535;DHT22;7869;49.264;8.596;2022-08-30T04:09:39;17.00;99.90
15535;DHT22;7869;49.264;8.596;2022-08-30T04:12:06;16.80;99.90
15535;DHT22;7869;49.264;8.596;2022-08-30T04:14:31;16.70;99.90
15535;DHT22;7869;49.264;8.596;2022-08-30T04:16:57;16.60;99.90
15535;DHT22;7869;49.264;8.596;2022-08-30T04:19:22;16.60;99.90
15535;DHT22;7869;49.264;8.596;2022-08-30T04:21:48;16.60;99.90
15535;DHT22;7869;49.264;8.596;2022-08-30T04:24:13;16.60;99.90
15535;DHT22;7869;49.264;8.596;2022-08-30T04:26:39;16.70;99.90
15535;DHT22;7869;49.264;8.596;2022-08-30T04:29:04;16.70;99.90
15535;DHT22;7869;49.264;8.596;2022-08-30T04:31:30;16.80;99.90
15535;DHT22;7869;49.264;8.596;2022-08-30T04:33:55;16.90;99.90
15535;DHT22;7869;49.264;8.596;2022-08-30T04:36:21;17.00;99.90
15535;DHT22;7869;49.264;8.596;2022-08-30T04:38:46;17.10;99.90
15535;DHT22;7869;49.264;8.596;2022-08-30T04:41:13;17.10;99.90
15535;DHT22;7869;49.264;8.596;2022-08-30T04:43:41;17.20;99.90
15535;DHT22;7869;49.264;8.596;2022-08-30T04:46:06;17.20;99.90
15535;DHT22;7869;49.264;8.596;2022-08-30T04:48:32;17.20;99.90
15535;DHT22;7869;49.264;8.596;2022-08-30T04:50:58;17.20;99.90
15535;DHT22;7869;49.264;8.596;2022-08-30T04:53:25;17.20;99.90
15535;DHT22;7869;49.264;8.596;2022-08-30T04:55:51;17.30;99.90
15535;DHT22;7869;49.264;8.596;2022-08-30T04:58:16;17.40;99.90
15535;DHT22;7869;49.264;8.596;2022-08-30T05:00:42;17.40;99.90
15535;DHT22;7869;49.264;8.596;2022-08-30T05:03:08;17.30;99.90
15535;DHT22;7869;49.264;8.596;2022-08-30T05:05:33;17.30;99.90
15535;DHT22;7869;49.264;8.596;2022-08-30T05:08:05;17.30;99.90
15535;DHT22;7869;49.264;8.596;2022-08-30T05:10:31;17.30;99.90
15535;DHT22;7869;49.264;8.596;2022-08-30T05:12:58;17.30;99.90
15535;DHT22;7869;49.264;8.596;2022-08-30T05:15:23;17.40;99.90
15535;DHT22;7869;49.264;8.596;2022-08-30T05:17:49;17.40;99.90
15535;DHT22;7869;49.264;8.596;2022-08-30T05:20:14;17.40;99.90
15535;DHT22;7869;49.264;8.596;2022-08-30T05:22:41;17.50;99.90
15535;DHT22;7869;49.264;8.596;2022-08-30T05:25:24;17.50;99.90
15535;DHT22;7869;49.264;8.596;2022-08-30T05:27:50;17.50;99.90
15535;DHT22;7869;49.264;8.596;2022-08-30T05:30:15;17.50;99.90
15535;DHT22;7869;49.264;8.596;2022-08-30T05:32:41;17.40;99.90
15535;DHT22;7869;49.264;8.596;2022-08-30T05:35:07;17.40;99.90
15535;DHT22;7869;49.264;8.596;2022-08-30T05:37:33;17.50;99.90
15535;DHT22;7869;49.264;8.596;2022-08-30T05:39:59;17.50;99.90
15535;DHT22;7869;49.264;8.596;2022-08-30T05:42:24;17.60;99.90
15535;DHT22;7869;49.264;8.596;2022-08-30T05:44:50;17.80;99.90
15535;DHT22;7869;49.264;8.596;2022-08-30T05:47:17;17.90;99.90
15535;DHT22;7869;49.264;8.596;2022-08-30T05:49:42;18.10;99.90
15535;DHT22;7869;49.264;8.596;2022-08-30T05:52:08;18.20;99.90
15535;DHT22;7869;49.264;8.596;2022-08-30T05:54:34;18.30;99.90
15535;DHT22;7869;49.264;8.596;2022-08-30T05:56:59;18.30;99.90
15535;DHT22;7869;49.264;8.596;2022-08-30T05:59:25;18.30;99.90
15535;DHT22;7869;49.264;8.596;2022-08-30T06:01:50;18.30;99.90
15535;DHT22;7869;49.264;8.596;2022-08-30T06:04:20;18.00;99.90
15535;DHT22;7869;49.264;8.596;2022-08-30T06:06:45;18.00;99.90
15535;DHT22;7869;49.264;8.596;2022-08-30T06:09:11;18.00;99.90
15535;DHT22;7869;49.264;8.596;2022-08-30T06:11:38;17.90;99.90
15535;DHT22;7869;49.264;8.596;2022-08-30T06:14:03;17.90;99.90
15535;DHT22;7869;49.264;8.596;2022-08-30T06:16:29;18.00;99.90
15535;DHT22;7869;49.264;8.596;2022-08-30T06:18:55;18.00;99.90
15535;DHT22;7869;49.264;8.596;2022-08-30T06:21:22;18.10;99.90
15535;DHT22;7869;49.264;8.596;2022-08-30T06:23:48;18.10;99.90
15535;DHT22;7869;49.264;8.596;2022-08-30T06:26:14;18.20;99.90
15535;DHT22;7869;49.264;8.596;2022-08-30T06:28:40;18.30;99.90
15535;DHT22;7869;49.264;8.596;2022-08-30T06:31:09;18.40;99.90
15535;DHT22;7869;49.264;8.596;2022-08-30T06:33:36;18.60;99.90
15535;DHT22;7869;49.264;8.596;2022-08-30T06:36:03;18.70;99.90
15535;DHT22;7869;49.264;8.596;2022-08-30T06:38:28;18.70;99.90
15535;DHT22;7869;49.264;8.596;2022-08-30T06:40:54;18.80;99.90
15535;DHT22;7869;49.264;8.596;2022-08-30T06:43:19;18.80;99.90
15535;DHT22;7869;49.264;8.596;2022-08-30T06:45:45;19.00;99.90
15535;DHT22;7869;49.264;8.596;2022-08-30T06:48:10;19.10;99.90
15535;DHT22;7869;49.264;8.596;2022-08-30T06:50:36;19.20;99.90
15535;DHT22;7869;49.264;8.596;2022-08-30T06:53:01;19.40;99.90
15535;DHT22;7869;49.264;8.596;2022-08-30T06:55:30;19.50;99.90
15535;DHT22;7869;49.264;8.596;2022-08-30T06:57:58;19.70;99.90
15535;DHT22;7869;49.264;8.596;2022-08-30T07:00:24;19.90;99.90
15535;DHT22;7869;49.264;8.596;2022-08-30T07:02:50;20.20;99.90
15535;DHT22;7869;49.264;8.596;2022-08-30T07:05:16;20.30;99.90
15535;DHT22;7869;49.264;8.596;2022-08-30T07:07:42;20.50;99.90
15535;DHT22;7869;49.264;8.596;2022-08-30T07:10:08;20.70;99.90
15535;DHT22;7869;49.264;8.596;2022-08-30T07:12:34;20.80;99.90
15535;DHT22;7869;49.264;8.596;2022-08-30T07:15:00;20.90;99.90
15535;DHT22;7869;49.264;8.596;2022-08-30T07:17:26;21.10;99.90
15535;DHT22;7869;49.264;8.596;2022-08-30T07:20:10;21.20;99.90
15535;DHT22;7869;49.264;8.596;2022-08-30T07:22:36;21.30;99.90
15535;DHT22;7869;49.264;8.596;2022-08-30T07:25:01;21.40;99.90
15535;DHT22;7869;49.264;8.596;2022-08-30T07:27:27;21.50;99.90
15535;DHT22;7869;49.264;8.596;2022-08-30T07:29:52;21.60;99.90
15535;DHT22;7869;49.264;8.596;2022-08-30T07:32:18;21.70;99.90
15535;DHT22;7869;49.264;8.596;2022-08-30T07:34:43;21.80;99.90
15535;DHT22;7869;49.264;8.596;2022-08-30T07:37:09;21.80;99.90
15535;DHT22;7869;49.264;8.596;2022-08-30T07:39:34;22.10;99.90
15535;DHT22;7869;49.264;8.596;2022-08-30T07:42:00;22.20;99.90
15535;DHT22;7869;49.264;8.596;2022-08-30T07:44:26;22.40;99.90
15535;DHT22;7869;49.264;8.596;2022-08-30T07:46:51;22.50;99.90
15535;DHT22;7869;49.264;8.596;2022-08-30T07:49:17;22.50;99.90
15535;DHT22;7869;49.264;8.596;2022-08-30T07:51:44;22.50;99.90
15535;DHT22;7869;49.264;8.596;2022-08-30T07:54:10;22.50;99.90
15535;DHT22;7869;49.264;8.596;2022-08-30T07:56:35;22.30;99.90
15535;DHT22;7869;49.264;8.596;2022-08-30T07:59:01;22.30;99.90
15535;DHT22;7869;49.264;8.596;2022-08-30T08:01:26;22.50;99.90
15535;DHT22;7869;49.264;8.596;2022-08-30T08:03:52;22.50;99.90
15535;DHT22;7869;49.264;8.596;2022-08-30T08:06:18;22.50;99.90
15535;DHT22;7869;49.264;8.596;2022-08-30T08:08:44;22.60;99.90
15535;DHT22;7869;49.264;8.596;2022-08-30T08:11:12;22.80;99.90
15535;DHT22;7869;49.264;8.596;2022-08-30T08:13:39;23.00;99.90
15535;DHT22;7869;49.264;8.596;2022-08-30T08:16:04;23.30;99.90
15535;DHT22;7869;49.264;8.596;2022-08-30T08:18:30;23.50;99.90
15535;DHT22;7869;49.264;8.596;2022-08-30T08:20:56;23.60;99.90
15535;DHT22;7869;49.264;8.596;2022-08-30T08:23:22;23.70;99.90
15535;DHT22;7869;49.264;8.596;2022-08-30T08:25:47;23.90;99.90
15535;DHT22;7869;49.264;8.596;2022-08-30T08:28:13;24.10;99.90
15535;DHT22;7869;49.264;8.596;2022-08-30T08:30:38;24.30;99.90
15535;DHT22;7869;49.264;8.596;2022-08-30T08:33:04;24.50;99.90
15535;DHT22;7869;49.264;8.596;2022-08-30T08:35:31;24.60;99.90
15535;DHT22;7869;49.264;8.596;2022-08-30T08:37:56;24.60;99.90
15535;DHT22;7869;49.264;8.596;2022-08-30T08:40:22;24.40;99.90
15535;DHT22;7869;49.264;8.596;2022-08-30T08:45:18;24.40;99.90
15535;DHT22;7869;49.264;8.596;2022-08-30T08:48:01;24.60;99.90
15535;DHT22;7869;49.264;8.596;2022-08-30T08:50:28;24.80;99.90
15535;DHT22;7869;49.264;8.596;2022-08-30T08:52:55;25.00;99.90
15535;DHT22;7869;49.264;8.596;2022-08-30T08:55:40;25.20;99.90
15535;DHT22;7869;49.264;8.596;2022-08-30T08:58:07;25.60;99.90
15535;DHT22;7869;49.264;8.596;2022-08-30T09:00:34;25.80;99.90
15535;DHT22;7869;49.264;8.596;2022-08-30T09:03:00;26.10;99.90
15535;DHT22;7869;49.264;8.596;2022-08-30T09:05:28;26.40;99.90
15535;DHT22;7869;49.264;8.596;2022-08-30T09:08:03;26.70;99.90
15535;DHT22;7869;49.264;8.596;2022-08-30T09:10:29;26.70;99.90
15535;DHT22;7869;49.264;8.596;2022-08-30T09:12:56;26.70;99.90
15535;DHT22;7869;49.264;8.596;2022-08-30T09:15:23;26.60;99.90
15535;DHT22;7869;49.264;8.596;2022-08-30T09:17:51;26.60;99.90
15535;DHT22;7869;49.264;8.596;2022-08-30T09:22:55;26.90;99.90
15535;DHT22;7869;49.264;8.596;2022-08-30T09:25:22;27.20;99.90
15535;DHT22;7869;49.264;8.596;2022-08-30T09:27:48;27.40;99.90
15535;DHT22;7869;49.264;8.596;2022-08-30T09:30:21;27.40;99.90
15535;DHT22;7869;49.264;8.596;2022-08-30T09:35:32;26.80;99.90
15535;DHT22;7869;49.264;8.596;2022-08-30T09:38:06;26.80;99.90
15535;DHT22;7869;49.264;8.596;2022-08-30T09:40:39;26.80;99.90
15535;DHT22;7869;49.264;8.596;2022-08-30T09:43:09;26.90;99.90
15535;DHT22;7869;49.264;8.596;2022-08-30T09:45:39;27.10;99.90
15535;DHT22;7869;49.264;8.596;2022-08-30T09:56:42;27.20;99.90
15535;DHT22;7869;49.264;8.596;2022-08-30T10:01:46;27.30;99.90
15535;DHT22;7869;49.264;8.596;2022-08-30T10:04:22;27.30;99.90
15535;DHT22;7869;49.264;8.596;2022-08-30T10:06:53;27.40;99.90
15535;DHT22;7869;49.264;8.596;2022-08-30T10:14:40;27.90;99.90
15535;DHT22;7869;49.264;8.596;2022-08-30T10:22:36;27.40;99.90
15535;DHT22;7869;49.264;8.596;2022-08-30T10:25:09;27.10;99.90
15535;DHT22;7869;49.264;8.596;2022-08-30T10:27:40;27.00;99.90
15535;DHT22;7869;49.264;8.596;2022-08-30T10:30:09;26.90;99.90
15535;DHT22;7869;49.264;8.596;2022-08-30T10:37:31;27.20;99.90
15535;DHT22;7869;49.264;8.596;2022-08-30T10:40:02;27.30;99.90
15535;DHT22;7869;49.264;8.596;2022-08-30T10:42:48;27.50;99.90
15535;DHT22;7869;49.264;8.596;2022-08-30T10:45:15;27.60;99.60
15535;DHT22;7869;49.264;8.596;2022-08-30T10:50:15;28.00;99.50
15535;DHT22;7869;49.264;8.596;2022-08-30T10:53:27;28.30;97.90
15535;DHT22;7869;49.264;8.596;2022-08-30T10:55:32;28.80;97.80
15535;DHT22;7869;49.264;8.596;2022-08-30T10:57:59;29.30;96.70
15535;DHT22;7869;49.264;8.596;2022-08-30T11:00:28;29.70;95.90
15535;DHT22;7869;49.264;8.596;2022-08-30T11:11:13;29.90;94.40
15535;DHT22;7869;49.264;8.596;2022-08-30T11:13:40;30.00;94.30
15535;DHT22;7869;49.264;8.596;2022-08-30T11:16:08;30.30;93.60
15535;DHT22;7869;49.264;8.596;2022-08-30T11:18:47;30.40;93.20
15535;DHT22;7869;49.264;8.596;2022-08-30T11:23:58;30.80;92.50
15535;DHT22;7869;49.264;8.596;2022-08-30T11:27:07;31.00;92.10
15535;DHT22;7869;49.264;8.596;2022-08-30T11:34:52;30.90;91.20
15535;DHT22;7869;49.264;8.596;2022-08-30T11:42:28;30.70;90.90
15535;DHT22;7869;49.264;8.596;2022-08-30T11:47:45;30.70;90.00
15535;DHT22;7869;49.264;8.596;2022-08-30T11:50:12;30.60;89.90
15535;DHT22;7869;49.264;8.596;2022-08-30T11:52:43;30.40;90.50
15535;DHT22;7869;49.264;8.596;2022-08-30T11:55:33;30.40;90.50
15535;DHT22;7869;49.264;8.596;2022-08-30T12:00:42;30.70;90.60
15535;DHT22;7869;49.264;8.596;2022-08-30T12:05:45;30.70;90.60
15535;DHT22;7869;49.264;8.596;2022-08-30T12:10:49;30.60;90.50
15535;DHT22;7869;49.264;8.596;2022-08-30T12:16:05;30.70;89.40
15535;DHT22;7869;49.264;8.596;2022-08-30T12:21:00;30.70;90.30
15535;DHT22;7869;49.264;8.596;2022-08-30T12:23:38;30.80;89.30
15535;DHT22;7869;49.264;8.596;2022-08-30T12:28:39;31.10;89.00
15535;DHT22;7869;49.264;8.596;2022-08-30T12:31:06;31.10;88.10
15535;DHT22;7869;49.264;8.596;2022-08-30T12:33:33;30.80;89.60
15535;DHT22;7869;49.264;8.596;2022-08-30T12:36:02;30.90;89.20
15535;DHT22;7869;49.264;8.596;2022-08-30T12:38:28;30.90;89.40
15535;DHT22;7869;49.264;8.596;2022-08-30T12:40:58;30.80;88.20
15535;DHT22;7869;49.264;8.596;2022-08-30T12:43:33;30.90;87.40
15535;DHT22;7869;49.264;8.596;2022-08-30T12:45:59;30.90;88.40
15535;DHT22;7869;49.264;8.596;2022-08-30T12:48:26;31.10;87.50
15535;DHT22;7869;49.264;8.596;2022-08-30T12:50:56;31.10;87.00
15535;DHT22;7869;49.264;8.596;2022-08-30T12:53:24;30.90;87.30
15535;DHT22;7869;49.264;8.596;2022-08-30T12:58:15;30.80;88.60
15535;DHT22;7869;49.264;8.596;2022-08-30T13:00:42;30.80;87.30
15535;DHT22;7869;49.264;8.596;2022-08-30T13:05:52;31.20;86.50
15535;DHT22;7869;49.264;8.596;2022-08-30T13:08:22;31.40;86.50
15535;DHT22;7869;49.264;8.596;2022-08-30T13:13:25;31.40;86.20
15535;DHT22;7869;49.264;8.596;2022-08-30T13:15:51;31.20;85.70
15535;DHT22;7869;49.264;8.596;2022-08-30T13:18:18;31.20;85.30
15535;DHT22;7869;49.264;8.596;2022-08-30T13:20:45;31.40;85.60
15535;DHT22;7869;49.264;8.596;2022-08-30T13:23:20;31.50;85.30
15535;DHT22;7869;49.264;8.596;2022-08-30T13:25:46;31.80;85.20
15535;DHT22;7869;49.264;8.596;2022-08-30T13:28:11;32.00;84.30
15535;DHT22;7869;49.264;8.596;2022-08-30T13:30:37;32.10;84.20
15535;DHT22;7869;49.264;8.596;2022-08-30T13:33:02;32.20;84.10
15535;DHT22;7869;49.264;8.596;2022-08-30T13:35:28;32.30;84.50
15535;DHT22;7869;49.264;8.596;2022-08-30T13:37:54;32.50;83.00
15535;DHT22;7869;49.264;8.596;2022-08-30T13:40:20;32.60;82.20
15535;DHT22;7869;49.264;8.596;2022-08-30T13:42:46;32.60;82.00
15535;DHT22;7869;49.264;8.596;2022-08-30T13:45:12;32.50;81.10
15535;DHT22;7869;49.264;8.596;2022-08-30T13:47:38;32.30;81.40
15535;DHT22;7869;49.264;8.596;2022-08-30T13:50:04;32.30;80.90
15535;DHT22;7869;49.264;8.596;2022-08-30T13:52:30;32.20;80.90
15535;DHT22;7869;49.264;8.596;2022-08-30T13:54:56;31.70;80.00
15535;DHT22;7869;49.264;8.596;2022-08-30T13:57:26;31.30;82.40
15535;DHT22;7869;49.264;8.596;2022-08-30T13:59:52;31.80;82.00
15535;DHT22;7869;49.264;8.596;2022-08-30T14:02:17;32.30;80.60
15535;DHT22;7869;49.264;8.596;2022-08-30T14:04:43;32.60;79.50
15535;DHT22;7869;49.264;8.596;2022-08-30T14:07:08;32.70;79.00
15535;DHT22;7869;49.264;8.596;2022-08-30T14:09:34;32.70;78.70
15535;DHT22;7869;49.264;8.596;2022-08-30T14:11:59;32.70;79.00
15535;DHT22;7869;49.264;8.596;2022-08-30T14:14:25;32.90;79.00
15535;DHT22;7869;49.264;8.596;2022-08-30T14:16:50;32.80;78.80
15535;DHT22;7869;49.264;8.596;2022-08-30T14:19:16;32.60;79.00
15535;DHT22;7869;49.264;8.596;2022-08-30T14:21:42;32.30;79.10
15535;DHT22;7869;49.264;8.596;2022-08-30T14:24:08;32.30;79.00
15535;DHT22;7869;49.264;8.596;2022-08-30T14:26:38;32.40;78.40
15535;DHT22;7869;49.264;8.596;2022-08-30T14:29:04;32.40;78.80
15535;DHT22;7869;49.264;8.596;2022-08-30T14:31:30;32.30;79.00
15535;DHT22;7869;49.264;8.596;2022-08-30T14:33:56;32.50;78.20
15535;DHT22;7869;49.264;8.596;2022-08-30T14:36:21;32.70;78.20
15535;DHT22;7869;49.264;8.596;2022-08-30T14:38:47;32.70;77.50
15535;DHT22;7869;49.264;8.596;2022-08-30T14:41:12;32.70;76.70
15535;DHT22;7869;49.264;8.596;2022-08-30T14:43:38;32.80;77.40
15535;DHT22;7869;49.264;8.596;2022-08-30T14:46:07;33.20;76.30
15535;DHT22;7869;49.264;8.596;2022-08-30T14:48:34;33.20;75.50
15535;DHT22;7869;49.264;8.596;2022-08-30T14:51:00;33.10;76.40
15535;DHT22;7869;49.264;8.596;2022-08-30T14:53:25;33.10;75.40
15535;DHT22;7869;49.264;8.596;2022-08-30T14:55:51;33.20;75.40
15535;DHT22;7869;49.264;8.596;2022-08-30T14:58:16;33.30;75.00
15535;DHT22;7869;49.264;8.596;2022-08-30T15:00:50;33.50;75.20
15535;DHT22;7869;49.264;8.596;2022-08-30T15:03:16;33.40;73.80
15535;DHT22;7869;49.264;8.596;2022-08-30T15:05:46;33.20;73.60
15535;DHT22;7869;49.264;8.596;2022-08-30T15:08:13;32.60;73.90
15535;DHT22;7869;49.264;8.596;2022-08-30T15:10:39;32.20;74.60
15535;DHT22;7869;49.264;8.596;2022-08-30T15:13:04;32.00;74.80
15535;DHT22;7869;49.264;8.596;2022-08-30T15:15:30;31.90;75.10
15535;DHT22;7869;49.264;8.596;2022-08-30T15:17:56;31.90;75.00
15535;DHT22;7869;49.264;8.596;2022-08-30T15:20:21;32.40;74.90
15535;DHT22;7869;49.264;8.596;2022-08-30T15:22:47;33.40;73.40
15535;DHT22;7869;49.264;8.596;2022-08-30T15:25:12;34.30;72.10
15535;DHT22;7869;49.264;8.596;2022-08-30T15:27:38;34.50;71.50
15535;DHT22;7869;49.264;8.596;2022-08-30T15:30:04;34.50;71.60
15535;DHT22;7869;49.264;8.596;2022-08-30T15:32:30;34.70;71.10
15535;DHT22;7869;49.264;8.596;2022-08-30T15:34:55;35.40;69.60
15535;DHT22;7869;49.264;8.596;2022-08-30T15:37:21;35.80;68.10
15535;DHT22;7869;49.264;8.596;2022-08-30T15:39:51;35.80;67.30
15535;DHT22;7869;49.264;8.596;2022-08-30T15:42:16;36.10;65.90
15535;DHT22;7869;49.264;8.596;2022-08-30T15:44:44;35.90;65.20
15535;DHT22;7869;49.264;8.596;2022-08-30T15:47:09;35.80;65.60
15535;DHT22;7869;49.264;8.596;2022-08-30T15:49:35;35.70;65.80
15535;DHT22;7869;49.264;8.596;2022-08-30T15:52:01;35.60;65.60
15535;DHT22;7869;49.264;8.596;2022-08-30T15:54:27;35.10;65.50
15535;DHT22;7869;49.264;8.596;2022-08-30T15:56:52;34.60;66.50
15535;DHT22;7869;49.264;8.596;2022-08-30T15:59:32;34.00;67.00
15535;DHT22;7869;49.264;8.596;2022-08-30T16:01:57;34.20;67.20
15535;DHT22;7869;49.264;8.596;2022-08-30T16:04:23;34.20;66.60
15535;DHT22;7869;49.264;8.596;2022-08-30T16:06:48;33.90;66.70
15535;DHT22;7869;49.264;8.596;2022-08-30T16:09:15;33.50;66.60
15535;DHT22;7869;49.264;8.596;2022-08-30T16:11:41;33.60;66.70
15535;DHT22;7869;49.264;8.596;2022-08-30T16:14:07;34.10;66.00
15535;DHT22;7869;49.264;8.596;2022-08-30T16:16:32;34.80;65.10
15535;DHT22;7869;49.264;8.596;2022-08-30T16:18:58;35.60;64.50
15535;DHT22;7869;49.264;8.596;2022-08-30T16:21:25;36.10;63.00
15535;DHT22;7869;49.264;8.596;2022-08-30T16:23:52;36.00;63.00
15535;DHT22;7869;49.264;8.596;2022-08-30T16:26:18;36.40;62.60
15535;DHT22;7869;49.264;8.596;2022-08-30T16:28:45;36.60;62.50
15535;DHT22;7869;49.264;8.596;2022-08-30T16:31:10;36.50;61.40
15535;DHT22;7869;49.264;8.596;2022-08-30T16:33:36;36.70;60.40
15535;DHT22;7869;49.264;8.596;2022-08-30T16:36:02;36.80;60.10
15535;DHT22;7869;49.264;8.596;2022-08-30T16:38:28;37.00;59.50
15535;DHT22;7869;49.264;8.596;2022-08-30T16:40:53;36.90;59.30
15535;DHT22;7869;49.264;8.596;2022-08-30T16:43:19;36.60;60.10
15535;DHT22;7869;49.264;8.596;2022-08-30T16:45:45;36.30;59.50
15535;DHT22;7869;49.264;8.596;2022-08-30T16:48:11;35.50;61.00
15535;DHT22;7869;49.264;8.596;2022-08-30T16:50:37;35.40;59.90
15535;DHT22;7869;49.264;8.596;2022-08-30T16:53:03;35.50;59.70
15535;DHT22;7869;49.264;8.596;2022-08-30T16:55:28;35.30;59.80
15535;DHT22;7869;49.264;8.596;2022-08-30T16:57:55;35.10;60.70
15535;DHT22;7869;49.264;8.596;2022-08-30T17:00:21;34.60;60.20
15535;DHT22;7869;49.264;8.596;2022-08-30T17:02:46;33.60;60.90
15535;DHT22;7869;49.264;8.596;2022-08-30T17:05:12;32.90;62.00
15535;DHT22;7869;49.264;8.596;2022-08-30T17:07:37;32.10;63.30